createdAt,value
2018-11-27T00:01:01.186Z,51.87
2018-11-27T00:05:59.368Z,55.93
2018-11-27T00:10:58.035Z,56.00
2018-11-27T00:15:56.858Z,56.40
2018-11-27T00:20:55.212Z,54.20
2018-11-27T00:25:53.595Z,52.43
2018-11-27T00:30:52.336Z,54.10
2018-11-27T00:35:51.115Z,52.40
2018-11-27T00:40:50.080Z,53.50
2018-11-27T00:45:48.696Z,58.37
2018-11-27T00:50:47.255Z,52.40
2018-11-27T00:55:47.638Z,49.50
2018-11-27T01:00:46.191Z,53.90
2018-11-27T01:05:44.010Z,52.80
2018-11-27T01:10:42.924Z,49.47
2018-11-27T01:15:41.838Z,52.97
2018-11-27T01:20:39.585Z,52.53
2018-11-27T01:25:37.337Z,52.93
2018-11-27T01:30:35.191Z,53.90
2018-11-27T01:35:33.050Z,51.20
2018-11-27T01:40:31.084Z,52.50
2018-11-27T01:45:29.328Z,53.47
2018-11-27T01:50:27.174Z,50.93
2018-11-27T01:55:26.913Z,53.33
2018-11-27T02:00:31.874Z,40.27
2018-11-27T02:05:30.375Z,45.20
2018-11-27T02:10:28.334Z,36.30
2018-11-27T02:15:27.500Z,31.13
2018-11-27T02:20:25.403Z,32.27
2018-11-27T02:25:32.562Z,27.13
2018-11-27T02:30:30.390Z,30.17
2018-11-27T02:35:29.165Z,27.97
2018-11-27T02:40:27.068Z,29.37
2018-11-27T02:45:25.851Z,27.80
2018-11-27T02:50:24.530Z,26.03
2018-11-27T02:55:28.775Z,28.60
2018-11-27T03:00:29.990Z,30.27
2018-11-27T03:05:38.029Z,28.93
2018-11-27T03:10:35.920Z,27.77
2018-11-27T03:15:33.682Z,26.33
2018-11-27T03:20:31.420Z,26.00
2018-11-27T03:25:29.165Z,24.70
2018-11-27T03:30:28.078Z,25.93
2018-11-27T03:35:26.978Z,23.43
2018-11-27T03:40:29.768Z,24.93
2018-11-27T03:45:27.677Z,24.60
2018-11-27T03:50:33.119Z,26.17
2018-11-27T03:55:30.838Z,22.33
2018-11-27T04:00:30.260Z,25.00
2018-11-27T04:05:28.860Z,26.83
2018-11-27T04:10:26.578Z,22.63
2018-11-27T04:15:24.333Z,25.60
2018-11-27T04:20:22.045Z,23.07
2018-11-27T04:25:20.603Z,24.47
2018-11-27T04:30:23.025Z,24.10
2018-11-27T04:35:24.648Z,23.87
2018-11-27T04:40:25.675Z,23.40
2018-11-27T04:45:27.582Z,22.97
2018-11-27T04:50:25.361Z,20.70
2018-11-27T04:55:23.871Z,23.03
2018-11-27T05:00:26.205Z,22.93
2018-11-27T05:05:24.132Z,22.83
2018-11-27T05:10:23.562Z,23.80
2018-11-27T05:15:27.997Z,23.13
2018-11-27T05:20:25.758Z,23.33
2018-11-27T05:25:23.691Z,25.63
2018-11-27T05:30:28.781Z,24.33
2018-11-27T05:35:31.378Z,23.67
2018-11-27T05:40:29.438Z,23.43
2018-11-27T05:45:27.920Z,23.03
2018-11-27T05:50:25.650Z,21.50
2018-11-27T05:55:23.373Z,22.17
2018-11-27T06:00:28.529Z,23.77
2018-11-27T06:05:26.485Z,23.37
2018-11-27T06:10:25.103Z,22.67
2018-11-27T06:15:24.372Z,22.67
2018-11-27T06:20:23.421Z,22.83
2018-11-27T06:25:25.661Z,23.27
2018-11-27T06:30:24.909Z,23.80
2018-11-27T06:35:42.720Z,24.87
2018-11-27T06:40:40.743Z,23.90
2018-11-27T06:45:38.569Z,22.37
2018-11-27T06:50:36.580Z,23.87
2018-11-27T06:55:34.349Z,22.80
2018-11-27T07:00:32.213Z,24.33
2018-11-27T07:05:29.980Z,24.40
2018-11-27T07:10:35.434Z,23.37
2018-11-27T07:15:33.183Z,25.37
2018-11-27T07:20:30.873Z,22.13
2018-11-27T07:25:28.687Z,23.27
2018-11-27T07:30:27.400Z,21.77
2018-11-27T07:35:25.226Z,25.13
2018-11-27T07:40:31.999Z,19.20
2018-11-27T07:45:29.758Z,22.67
2018-11-27T07:50:28.172Z,23.47
2018-11-27T07:55:26.279Z,24.63
2018-11-27T08:00:28.348Z,22.97
2018-11-27T08:05:37.576Z,21.00
2018-11-27T08:10:35.934Z,21.53
2018-11-27T08:15:34.118Z,20.40
2018-11-27T08:20:36.211Z,20.17
2018-11-27T08:25:33.961Z,21.23
2018-11-27T08:30:31.714Z,22.50
2018-11-27T08:35:30.976Z,20.60
2018-11-27T08:40:30.215Z,20.57
2018-11-27T08:45:28.375Z,19.03
2018-11-27T08:50:27.523Z,18.77
2018-11-27T08:55:30.062Z,19.07
2018-11-27T09:00:28.702Z,19.60
2018-11-27T09:05:26.435Z,19.93
2018-11-27T09:10:27.736Z,20.97
2018-11-27T09:20:26.268Z,20.60
2018-11-27T09:25:24.003Z,18.80
2018-11-27T09:30:26.550Z,17.67
2018-11-27T09:35:24.300Z,19.27
2018-11-27T09:40:23.086Z,19.37
2018-11-27T09:45:25.645Z,19.27
2018-11-27T09:50:23.389Z,21.57
2018-11-27T09:55:28.668Z,16.13
2018-11-27T10:00:33.849Z,16.97
2018-11-27T10:05:31.595Z,18.17
2018-11-27T10:10:29.434Z,18.23
2018-11-27T10:15:28.578Z,22.13
2018-11-27T10:20:28.106Z,19.53
2018-11-27T10:25:25.853Z,17.70
2018-11-27T10:30:30.047Z,22.60
2018-11-27T10:35:50.976Z,18.33
2018-11-27T10:40:49.111Z,18.53
2018-11-27T10:45:46.837Z,18.20
2018-11-27T10:50:44.587Z,20.13
2018-11-27T10:55:42.320Z,18.77
2018-11-27T11:00:58.213Z,18.80
2018-11-27T11:05:57.293Z,17.73
2018-11-27T11:10:55.068Z,17.17
2018-11-27T11:15:52.929Z,15.03
2018-11-27T11:20:50.745Z,18.03
2018-11-27T11:25:48.535Z,16.87
2018-11-27T11:30:46.261Z,18.53
2018-11-27T11:35:44.089Z,17.23
2018-11-27T11:40:41.960Z,15.77
2018-11-27T11:45:39.756Z,15.63
2018-11-27T11:50:38.318Z,16.63
2018-11-27T11:55:36.045Z,14.60
2018-11-27T12:00:41.853Z,15.03
2018-11-27T12:05:40.204Z,14.50
2018-11-27T12:10:38.445Z,12.47
2018-11-27T12:15:36.213Z,16.50
2018-11-27T12:20:33.967Z,14.63
2018-11-27T12:25:31.735Z,13.17
2018-11-27T12:30:29.661Z,14.77
2018-11-27T12:35:27.398Z,14.33
2018-11-27T12:40:29.802Z,13.30
2018-11-27T12:45:32.815Z,13.90
2018-11-27T12:50:52.218Z,14.53
2018-11-27T12:55:51.656Z,13.10
2018-11-27T13:00:49.435Z,13.70
2018-11-27T13:05:51.426Z,17.60
2018-11-27T13:10:50.220Z,12.40
2018-11-27T13:15:49.485Z,14.47
2018-11-27T13:20:47.327Z,13.03
2018-11-27T13:25:45.483Z,12.97
2018-11-27T13:31:04.539Z,12.47
2018-11-27T13:36:02.674Z,15.53
2018-11-27T13:41:00.495Z,12.27
2018-11-27T13:45:59.454Z,13.60
2018-11-27T13:50:57.188Z,13.87
2018-11-27T13:55:54.957Z,15.30
2018-11-27T14:00:54.345Z,16.50
2018-11-27T14:05:52.963Z,16.47
2018-11-27T14:10:51.619Z,12.97
2018-11-27T14:15:50.125Z,14.40
2018-11-27T14:20:47.875Z,15.83
2018-11-27T14:25:45.815Z,13.60
2018-11-27T14:30:44.196Z,14.90
2018-11-27T14:35:42.681Z,15.50
2018-11-27T14:40:40.788Z,15.27
2018-11-27T14:45:39.087Z,16.47
2018-11-27T14:50:37.050Z,14.83
2018-11-27T14:55:36.614Z,15.53
2018-11-27T15:00:34.929Z,15.77
2018-11-27T15:05:38.149Z,17.20
2018-11-27T15:10:36.672Z,16.63
2018-11-27T15:15:34.984Z,16.50
2018-11-27T15:20:33.495Z,16.93
2018-11-27T15:25:33.754Z,15.73
2018-11-27T15:30:44.007Z,16.53
2018-11-27T15:35:49.567Z,19.00
2018-11-27T15:40:57.113Z,18.27
2018-11-27T15:46:00.523Z,17.93
2018-11-27T15:50:59.906Z,18.17
2018-11-27T15:56:01.025Z,18.87
2018-11-27T16:01:01.487Z,19.10
2018-11-27T16:06:04.714Z,18.43
2018-11-27T16:11:04.427Z,17.27
2018-11-27T16:16:04.040Z,20.90
2018-11-27T16:21:08.537Z,18.53
2018-11-27T16:26:13.775Z,16.63
2018-11-27T16:31:15.754Z,16.50
2018-11-27T16:36:16.059Z,17.40
2018-11-27T16:41:28.534Z,15.07
2018-11-27T16:46:33.199Z,18.00
2018-11-27T16:51:44.520Z,14.50
2018-11-27T16:56:50.903Z,13.73
2018-11-27T17:01:52.216Z,15.27
2018-11-27T17:06:54.925Z,16.87
2018-11-27T17:11:55.988Z,17.23
2018-11-27T17:16:53.745Z,14.90
2018-11-27T17:21:51.593Z,18.03
2018-11-27T17:26:49.324Z,16.33
2018-11-27T17:31:47.056Z,15.93
2018-11-27T17:36:44.990Z,21.40
2018-11-27T17:41:42.751Z,21.57
2018-11-27T17:46:43.534Z,21.00
2018-11-27T17:51:41.423Z,18.27
2018-11-27T17:56:39.210Z,21.90
2018-11-27T18:01:37.036Z,19.17
2018-11-27T18:06:34.760Z,28.63
2018-11-27T18:11:32.550Z,22.97
2018-11-27T18:16:30.514Z,25.07
2018-11-27T18:21:28.269Z,24.53
2018-11-27T18:26:26.224Z,23.83
2018-11-27T18:31:23.968Z,26.73
2018-11-27T18:36:25.795Z,25.27
2018-11-27T18:41:20.288Z,24.97
2018-11-27T18:46:18.064Z,27.70
2018-11-27T18:51:15.780Z,28.67
2018-11-27T18:56:13.868Z,26.60
2018-11-27T19:01:12.281Z,28.07
2018-11-27T19:06:10.723Z,27.67
2018-11-27T19:11:09.984Z,28.80
2018-11-27T19:16:08.750Z,29.33
2018-11-27T19:21:06.616Z,27.37
2018-11-27T19:26:04.449Z,30.47
2018-11-27T19:31:02.175Z,26.53
2018-11-27T19:35:59.909Z,26.37
2018-11-27T19:40:57.650Z,28.13
2018-11-27T19:45:55.482Z,30.47
2018-11-27T19:50:53.250Z,32.37
2018-11-27T19:55:51.008Z,31.10
2018-11-27T20:07:07.383Z,24.57
2018-11-27T20:12:05.118Z,28.93
2018-11-27T20:17:02.911Z,29.87
2018-11-27T20:22:00.784Z,28.70
2018-11-27T20:26:58.680Z,29.07
2018-11-27T20:31:56.485Z,30.00
2018-11-27T20:36:54.280Z,27.93
2018-11-27T20:41:52.048Z,32.03
2018-11-27T20:46:49.823Z,28.70
2018-11-27T20:51:47.687Z,28.70
2018-11-27T20:56:45.584Z,32.53
2018-11-27T21:01:43.500Z,30.40
2018-11-27T21:06:41.308Z,32.07
2018-11-27T21:11:39.899Z,30.57
2018-11-27T21:16:39.217Z,33.53
2018-11-27T21:21:37.854Z,32.33
2018-11-27T21:26:36.495Z,31.70
2018-11-27T21:31:34.744Z,31.17
2018-11-27T21:36:33.413Z,31.83
2018-11-27T21:41:32.156Z,34.87
2018-11-27T21:46:30.955Z,32.63
2018-11-27T21:51:29.675Z,31.73
2018-11-27T21:56:27.556Z,31.33
2018-11-27T22:01:26.411Z,32.40
2018-11-27T22:06:24.618Z,31.70
2018-11-27T22:11:23.891Z,30.43
2018-11-27T22:16:22.008Z,29.57
2018-11-27T22:21:20.799Z,30.13
2018-11-27T22:26:19.571Z,33.97
2018-11-27T22:31:18.389Z,29.20
2018-11-27T22:36:16.258Z,34.40
2018-11-27T22:41:14.606Z,35.47
2018-11-27T22:46:13.553Z,30.40
2018-11-27T22:51:12.834Z,32.00
2018-11-27T22:56:11.641Z,31.53
2018-11-27T23:01:09.821Z,31.17
2018-11-27T23:06:08.845Z,32.80
2018-11-27T23:11:06.998Z,34.63
2018-11-27T23:16:05.393Z,31.77
2018-11-27T23:21:04.555Z,31.93
2018-11-27T23:26:03.279Z,31.07
2018-11-27T23:31:02.374Z,31.00
2018-11-27T23:36:00.723Z,31.83
2018-11-27T23:40:59.353Z,38.20
2018-11-27T23:45:57.901Z,36.80
2018-11-27T23:50:56.626Z,33.27
2018-11-27T23:55:56.386Z,34.17
